Time;durP1;ratioP1;P1;durP2;ratioP2;P2;SDS_P1;SDS_P2;PMS_P1;PMS_P2;Temp;Humidity;BMP_temperature;BMP_pressure;BME280_temperature;BME280_humidity;BME280_pressure;Samples;Min_cycle;Max_cycle;Signal;HPM_P1;HPM_P2
2023/07/30 00:00:24;;;;;;;;;;;21.30;94.00;;;;;;4982132;28;19940;-75
2023/07/30 00:02:52;;;;;;;;;;;21.30;94.00;;;;;;4982202;28;19933;-74
2023/07/30 00:05:18;;;;;;;;;;;21.30;94.00;;;;;;4982046;28;19934;-75
2023/07/30 00:07:45;;;;;;;;;;;21.20;94.00;;;;;;4984352;28;19933;-75
2023/07/30 00:10:12;;;;;;;;;;;21.20;94.00;;;;;;4983467;28;20137;-75
2023/07/30 00:12:40;;;;;;;;;;;21.20;94.10;;;;;;4982202;28;19941;-75
2023/07/30 00:15:07;;;;;;;;;;;21.10;94.10;;;;;;4981367;28;20467;-75
2023/07/30 00:17:34;;;;;;;;;;;21.10;94.20;;;;;;4986696;28;19930;-75
2023/07/30 00:20:02;;;;;;;;;;;21.10;94.20;;;;;;4981106;28;20033;-75
2023/07/30 00:22:29;;;;;;;;;;;21.10;94.30;;;;;;4987195;28;19929;-74
2023/07/30 00:24:56;;;;;;;;;;;21.10;94.40;;;;;;4990815;28;19948;-74
2023/07/30 00:27:22;;;;;;;;;;;21.00;94.40;;;;;;4990078;28;19930;-75
2023/07/30 00:29:49;;;;;;;;;;;21.00;94.40;;;;;;4982049;28;19929;-74
2023/07/30 00:32:16;;;;;;;;;;;20.90;94.40;;;;;;4983246;28;20592;-74
2023/07/30 00:34:43;;;;;;;;;;;20.90;94.50;;;;;;4985172;28;19929;-75
2023/07/30 00:37:10;;;;;;;;;;;20.90;94.50;;;;;;4984394;28;19929;-75
2023/07/30 00:39:37;;;;;;;;;;;20.90;94.60;;;;;;4984734;28;19937;-75
2023/07/30 00:42:04;;;;;;;;;;;20.80;94.60;;;;;;4983676;28;19929;-74
2023/07/30 00:44:30;;;;;;;;;;;20.90;94.70;;;;;;4981887;28;19930;-75
2023/07/30 00:46:57;;;;;;;;;;;20.80;94.80;;;;;;4980476;28;19936;-75
2023/07/30 00:49:24;;;;;;;;;;;20.80;94.90;;;;;;4979831;28;19934;-76
2023/07/30 00:51:50;;;;;;;;;;;20.80;94.90;;;;;;4977033;28;19930;-75
2023/07/30 00:54:18;;;;;;;;;;;20.70;95.00;;;;;;4983843;28;19930;-75
2023/07/30 00:56:52;;;;;;;;;;;20.70;95.00;;;;;;4983818;28;20016;-75
2023/07/30 00:59:19;;;;;;;;;;;20.70;95.10;;;;;;4987530;28;20426;-75
2023/07/30 01:01:47;;;;;;;;;;;20.70;95.20;;;;;;4981889;28;19937;-75
2023/07/30 01:04:14;;;;;;;;;;;20.60;95.20;;;;;;4986260;28;20472;-75
2023/07/30 01:06:40;;;;;;;;;;;20.60;95.30;;;;;;4980750;28;20316;-75
2023/07/30 01:09:07;;;;;;;;;;;20.60;95.40;;;;;;4984527;28;19994;-75
2023/07/30 01:11:35;;;;;;;;;;;20.60;95.50;;;;;;4986734;28;19929;-77
2023/07/30 01:14:03;;;;;;;;;;;20.60;95.60;;;;;;4985062;28;19929;-75
2023/07/30 01:16:29;;;;;;;;;;;20.60;95.60;;;;;;4987708;28;19929;-75
2023/07/30 01:18:56;;;;;;;;;;;20.50;95.70;;;;;;4982782;28;19933;-75
2023/07/30 01:21:24;;;;;;;;;;;20.50;95.70;;;;;;4982079;28;20336;-75
2023/07/30 01:23:51;;;;;;;;;;;20.50;95.80;;;;;;4985288;28;19937;-75
2023/07/30 01:26:20;;;;;;;;;;;20.50;95.90;;;;;;4985325;28;19934;-75
2023/07/30 01:28:47;;;;;;;;;;;20.50;96.00;;;;;;4983919;28;19930;-75
2023/07/30 01:31:15;;;;;;;;;;;20.40;96.00;;;;;;4985057;28;19941;-75
2023/07/30 01:33:42;;;;;;;;;;;20.50;96.10;;;;;;4988317;28;20568;-75
2023/07/30 01:36:09;;;;;;;;;;;20.40;96.10;;;;;;4984822;28;19929;-75
2023/07/30 01:38:38;;;;;;;;;;;20.40;96.20;;;;;;4981078;28;19937;-76
2023/07/30 01:41:05;;;;;;;;;;;20.40;96.30;;;;;;4980767;28;19933;-75
2023/07/30 01:43:31;;;;;;;;;;;20.30;96.30;;;;;;4983295;28;19936;-76
2023/07/30 01:45:58;;;;;;;;;;;20.40;96.40;;;;;;4981388;28;19929;-75
2023/07/30 01:48:24;;;;;;;;;;;20.30;96.40;;;;;;4986972;28;19933;-75
2023/07/30 01:50:51;;;;;;;;;;;20.40;96.50;;;;;;4981744;28;19937;-76
2023/07/30 01:53:18;;;;;;;;;;;20.30;96.50;;;;;;4983494;28;19934;-75
2023/07/30 01:55:46;;;;;;;;;;;20.30;96.60;;;;;;4979538;28;20667;-75
2023/07/30 01:58:13;;;;;;;;;;;20.30;96.60;;;;;;4983986;28;20049;-75
2023/07/30 02:00:40;;;;;;;;;;;20.30;96.60;;;;;;4982643;28;20056;-75
2023/07/30 02:03:07;;;;;;;;;;;20.20;96.60;;;;;;4979038;28;19937;-75
2023/07/30 02:05:35;;;;;;;;;;;20.20;96.70;;;;;;4979600;28;21380;-75
2023/07/30 02:08:01;;;;;;;;;;;20.20;96.70;;;;;;4981729;28;19930;-75
2023/07/30 02:10:28;;;;;;;;;;;20.30;96.80;;;;;;4983914;28;19934;-75
2023/07/30 02:12:56;;;;;;;;;;;20.30;96.90;;;;;;4980127;28;19930;-74
2023/07/30 02:15:22;;;;;;;;;;;20.20;96.90;;;;;;4985715;28;19930;-75
2023/07/30 02:17:49;;;;;;;;;;;20.20;97.00;;;;;;4982705;28;19936;-75
2023/07/30 02:20:15;;;;;;;;;;;20.20;97.00;;;;;;4979468;28;19929;-75
2023/07/30 02:22:42;;;;;;;;;;;20.20;97.10;;;;;;4985625;28;20331;-74
2023/07/30 02:25:09;;;;;;;;;;;20.20;97.10;;;;;;4984000;28;20491;-75
2023/07/30 02:27:35;;;;;;;;;;;20.20;97.10;;;;;;4986749;28;19933;-75
2023/07/30 02:30:03;;;;;;;;;;;20.20;97.10;;;;;;4984419;28;19936;-75
2023/07/30 02:32:30;;;;;;;;;;;20.20;97.20;;;;;;4985102;28;19992;-75
2023/07/30 02:34:56;;;;;;;;;;;20.10;97.20;;;;;;4984145;28;20415;-75
2023/07/30 02:37:23;;;;;;;;;;;20.10;97.30;;;;;;4978751;28;20433;-75
2023/07/30 02:39:49;;;;;;;;;;;20.10;97.30;;;;;;4985420;28;19937;-75
2023/07/30 02:42:16;;;;;;;;;;;20.10;97.30;;;;;;4985300;28;20308;-75
2023/07/30 02:44:43;;;;;;;;;;;20.10;97.40;;;;;;4983793;28;20448;-75
2023/07/30 02:47:10;;;;;;;;;;;20.10;97.40;;;;;;4981277;28;20760;-75
2023/07/30 02:49:37;;;;;;;;;;;20.10;97.40;;;;;;4983164;28;19964;-75
2023/07/30 02:52:04;;;;;;;;;;;20.10;97.50;;;;;;4975228;28;20005;-74
2023/07/30 02:54:30;;;;;;;;;;;20.10;97.50;;;;;;4980567;28;19937;-76
2023/07/30 02:56:57;;;;;;;;;;;20.10;97.50;;;;;;4983301;28;19926;-75
2023/07/30 02:59:24;;;;;;;;;;;20.00;97.50;;;;;;4981621;28;19930;-75
2023/07/30 03:01:50;;;;;;;;;;;20.10;97.70;;;;;;4981840;28;19929;-75
2023/07/30 03:04:18;;;;;;;;;;;20.00;97.50;;;;;;4982748;28;19930;-75
2023/07/30 03:06:44;;;;;;;;;;;20.00;97.50;;;;;;4980934;28;20363;-75
2023/07/30 03:09:11;;;;;;;;;;;20.00;97.50;;;;;;4981179;28;20337;-75
2023/07/30 03:11:38;;;;;;;;;;;20.00;97.50;;;;;;4979231;28;19946;-75
2023/07/30 03:14:04;;;;;;;;;;;20.00;97.50;;;;;;4980853;28;19941;-75
2023/07/30 03:16:31;;;;;;;;;;;20.00;97.60;;;;;;4985528;28;19945;-75
2023/07/30 03:18:57;;;;;;;;;;;20.00;97.60;;;;;;4979768;28;19933;-74
2023/07/30 03:21:25;;;;;;;;;;;20.00;97.60;;;;;;4979773;28;19930;-75
2023/07/30 03:23:52;;;;;;;;;;;20.00;97.60;;;;;;4981900;28;19952;-75
2023/07/30 03:26:18;;;;;;;;;;;20.00;97.60;;;;;;4984537;28;19937;-75
2023/07/30 03:28:45;;;;;;;;;;;20.00;97.60;;;;;;4976336;28;19949;-75
2023/07/30 03:31:11;;;;;;;;;;;20.00;97.60;;;;;;4981157;28;19933;-75
2023/07/30 03:33:39;;;;;;;;;;;19.90;97.60;;;;;;4985210;28;19930;-75
2023/07/30 03:36:05;;;;;;;;;;;19.90;97.60;;;;;;4983100;28;20004;-75
2023/07/30 03:38:33;;;;;;;;;;;19.90;97.60;;;;;;4982690;28;19937;-75
2023/07/30 03:41:00;;;;;;;;;;;19.90;97.60;;;;;;4983758;28;19930;-75
2023/07/30 03:43:26;;;;;;;;;;;19.90;97.70;;;;;;4980762;28;19937;-74
2023/07/30 03:45:53;;;;;;;;;;;19.90;97.70;;;;;;4975650;28;19941;-75
2023/07/30 03:48:19;;;;;;;;;;;19.90;97.70;;;;;;4981630;28;19925;-75
2023/07/30 03:50:46;;;;;;;;;;;19.90;97.70;;;;;;4980018;28;20009;-76
2023/07/30 03:53:13;;;;;;;;;;;19.90;97.70;;;;;;4979862;28;19965;-75
2023/07/30 03:55:41;;;;;;;;;;;19.90;97.80;;;;;;4983097;28;19930;-74
2023/07/30 03:58:07;;;;;;;;;;;19.90;97.80;;;;;;4982628;28;19945;-75
2023/07/30 04:00:34;;;;;;;;;;;19.90;97.80;;;;;;4981561;28;19930;-75
2023/07/30 04:03:00;;;;;;;;;;;19.90;97.80;;;;;;4977753;28;19933;-75
2023/07/30 04:05:27;;;;;;;;;;;19.90;97.90;;;;;;4982769;28;19934;-75
2023/07/30 04:07:53;;;;;;;;;;;19.90;97.90;;;;;;4985199;28;19930;-75
2023/07/30 04:10:20;;;;;;;;;;;19.90;97.90;;;;;;4980824;28;20038;-75
2023/07/30 04:12:48;;;;;;;;;;;19.80;98.00;;;;;;4981118;28;20539;-75
2023/07/30 04:15:15;;;;;;;;;;;19.80;98.00;;;;;;4981250;28;20667;-75
2023/07/30 04:17:42;;;;;;;;;;;19.80;98.00;;;;;;4980237;28;19938;-75
2023/07/30 04:20:09;;;;;;;;;;;19.80;98.00;;;;;;4974039;28;19936;-74
2023/07/30 04:22:35;;;;;;;;;;;19.90;98.10;;;;;;4983575;28;19972;-75
2023/07/30 04:25:02;;;;;;;;;;;19.90;98.10;;;;;;4979627;28;19938;-74
2023/07/30 04:27:29;;;;;;;;;;;19.80;98.10;;;;;;4974880;28;19929;-74
2023/07/30 04:29:56;;;;;;;;;;;19.80;98.10;;;;;;4984173;28;20334;-74
2023/07/30 04:32:23;;;;;;;;;;;19.80;98.10;;;;;;4980394;28;20372;-75
2023/07/30 04:34:50;;;;;;;;;;;19.80;98.10;;;;;;4987606;28;19936;-74
2023/07/30 04:37:16;;;;;;;;;;;19.80;98.20;;;;;;4982985;28;20421;-74
2023/07/30 04:39:43;;;;;;;;;;;19.80;98.50;;;;;;4987271;28;20560;-74
2023/07/30 04:42:09;;;;;;;;;;;19.80;98.20;;;;;;4983230;28;19930;-75
2023/07/30 04:44:36;;;;;;;;;;;19.80;98.20;;;;;;4984013;28;19937;-74
2023/07/30 04:47:04;;;;;;;;;;;19.80;98.20;;;;;;4984465;28;19929;-74
2023/07/30 04:49:30;;;;;;;;;;;19.80;98.30;;;;;;4984215;28;19937;-74
2023/07/30 04:51:57;;;;;;;;;;;19.70;98.30;;;;;;4977354;28;19926;-74
2023/07/30 04:54:23;;;;;;;;;;;19.70;98.40;;;;;;4984969;28;19930;-74
2023/07/30 04:56:50;;;;;;;;;;;19.70;98.40;;;;;;4983266;28;19934;-74
2023/07/30 04:59:16;;;;;;;;;;;19.70;98.40;;;;;;4983718;28;19936;-74
2023/07/30 05:01:43;;;;;;;;;;;19.70;98.50;;;;;;4978756;28;19965;-74
2023/07/30 05:04:11;;;;;;;;;;;19.70;98.40;;;;;;4982256;28;19933;-74
2023/07/30 05:06:37;;;;;;;;;;;19.70;98.40;;;;;;4983924;28;19934;-74
2023/07/30 05:09:05;;;;;;;;;;;19.70;98.40;;;;;;4985615;28;19934;-74
2023/07/30 05:11:31;;;;;;;;;;;19.70;98.40;;;;;;4984667;28;20601;-74
2023/07/30 05:13:58;;;;;;;;;;;19.70;98.40;;;;;;4984717;28;19940;-74
2023/07/30 05:16:25;;;;;;;;;;;19.70;98.40;;;;;;4984334;28;20016;-74
2023/07/30 05:18:51;;;;;;;;;;;19.70;98.40;;;;;;4983199;28;19930;-74
2023/07/30 05:21:19;;;;;;;;;;;19.60;98.30;;;;;;4981936;28;19933;-75
2023/07/30 05:23:46;;;;;;;;;;;19.60;98.30;;;;;;4984510;28;19929;-74
2023/07/30 05:26:12;;;;;;;;;;;19.60;98.30;;;;;;4983395;28;19930;-75
2023/07/30 05:28:39;;;;;;;;;;;19.60;98.30;;;;;;4980898;28;19941;-75
2023/07/30 05:31:05;;;;;;;;;;;19.60;98.30;;;;;;4975378;28;19930;-74
2023/07/30 05:33:32;;;;;;;;;;;19.60;98.30;;;;;;4977297;28;19930;-74
2023/07/30 05:35:58;;;;;;;;;;;19.60;98.30;;;;;;4977377;28;20678;-74
2023/07/30 05:38:26;;;;;;;;;;;19.60;98.20;;;;;;4980235;28;19930;-75
2023/07/30 05:40:53;;;;;;;;;;;19.60;98.30;;;;;;4977410;28;19937;-75
2023/07/30 05:43:19;;;;;;;;;;;19.60;98.20;;;;;;4975728;28;19937;-75
2023/07/30 05:45:46;;;;;;;;;;;19.50;98.20;;;;;;4979131;28;19930;-74
2023/07/30 05:48:13;;;;;;;;;;;19.50;98.20;;;;;;4977998;28;20563;-75
2023/07/30 05:50:39;;;;;;;;;;;19.50;98.20;;;;;;4976258;28;19936;-75
2023/07/30 05:53:06;;;;;;;;;;;19.60;98.20;;;;;;4976007;28;19934;-75
2023/07/30 05:55:34;;;;;;;;;;;19.50;98.20;;;;;;4975044;28;19929;-74
2023/07/30 05:58:00;;;;;;;;;;;19.50;98.20;;;;;;4979075;28;19933;-75
2023/07/30 06:00:27;;;;;;;;;;;19.50;98.20;;;;;;4978319;28;20782;-74
2023/07/30 06:02:53;;;;;;;;;;;19.50;98.20;;;;;;4978996;28;19968;-75
2023/07/30 06:05:20;;;;;;;;;;;19.60;98.30;;;;;;4976987;28;19934;-74
2023/07/30 06:07:46;;;;;;;;;;;19.50;98.30;;;;;;4978593;28;19950;-75
2023/07/30 06:10:13;;;;;;;;;;;19.50;98.40;;;;;;4978517;28;20311;-75
2023/07/30 06:12:41;;;;;;;;;;;19.60;98.50;;;;;;4974982;28;20427;-75
2023/07/30 06:15:09;;;;;;;;;;;19.50;98.50;;;;;;4976341;28;19937;-75
2023/07/30 06:17:36;;;;;;;;;;;19.50;98.50;;;;;;4975770;28;20029;-75
2023/07/30 06:20:03;;;;;;;;;;;19.50;98.50;;;;;;4977282;28;19937;-75
2023/07/30 06:22:29;;;;;;;;;;;19.50;98.50;;;;;;4978263;28;19930;-75
2023/07/30 06:24:56;;;;;;;;;;;19.60;98.50;;;;;;4976531;28;19933;-75
2023/07/30 06:27:23;;;;;;;;;;;19.50;98.50;;;;;;4978494;28;19933;-74
2023/07/30 06:29:51;;;;;;;;;;;19.60;98.50;;;;;;4977655;28;19941;-75
2023/07/30 06:32:17;;;;;;;;;;;19.60;98.60;;;;;;4978310;28;19929;-75
2023/07/30 06:34:44;;;;;;;;;;;19.60;98.60;;;;;;4978382;28;19930;-75
2023/07/30 06:37:10;;;;;;;;;;;19.60;98.60;;;;;;4983888;28;19929;-75
2023/07/30 06:39:37;;;;;;;;;;;19.60;98.60;;;;;;4977268;28;19956;-75
2023/07/30 06:42:04;;;;;;;;;;;19.60;98.50;;;;;;4984340;28;19941;-76
2023/07/30 06:44:30;;;;;;;;;;;19.60;98.50;;;;;;4981972;28;19929;-75
2023/07/30 06:46:58;;;;;;;;;;;19.60;98.60;;;;;;4980881;28;19948;-74
2023/07/30 06:49:25;;;;;;;;;;;19.60;98.70;;;;;;4985363;28;19936;-75
2023/07/30 06:51:51;;;;;;;;;;;19.60;98.60;;;;;;4983249;28;19929;-76
2023/07/30 06:54:18;;;;;;;;;;;19.60;98.70;;;;;;4984185;28;19936;-74
2023/07/30 06:56:44;;;;;;;;;;;19.60;98.70;;;;;;4982057;28;19937;-74
2023/07/30 06:59:11;;;;;;;;;;;19.60;98.70;;;;;;4984909;28;19936;-74
2023/07/30 07:01:37;;;;;;;;;;;19.60;98.70;;;;;;4981295;28;19965;-74
2023/07/30 07:04:05;;;;;;;;;;;19.60;98.70;;;;;;4978898;28;20439;-75
2023/07/30 07:06:32;;;;;;;;;;;19.60;98.80;;;;;;4981164;28;20578;-76
2023/07/30 07:08:59;;;;;;;;;;;19.60;98.80;;;;;;4985320;28;20585;-75
2023/07/30 07:11:25;;;;;;;;;;;19.60;98.80;;;;;;4976695;28;20445;-75
2023/07/30 07:13:52;;;;;;;;;;;19.60;98.80;;;;;;4979544;28;19942;-75
2023/07/30 07:16:19;;;;;;;;;;;19.60;98.80;;;;;;4982770;28;19937;-77
2023/07/30 07:18:46;;;;;;;;;;;19.60;98.80;;;;;;4983461;28;19973;-76
2023/07/30 07:21:14;;;;;;;;;;;19.60;98.80;;;;;;4980201;28;20147;-75
2023/07/30 07:23:40;;;;;;;;;;;19.60;98.80;;;;;;4983966;28;19930;-75
2023/07/30 07:26:07;;;;;;;;;;;19.50;98.80;;;;;;4980942;28;20643;-74
2023/07/30 07:28:33;;;;;;;;;;;19.60;98.90;;;;;;4982580;28;19956;-76
2023/07/30 07:31:00;;;;;;;;;;;19.50;98.90;;;;;;4981325;28;19929;-76
2023/07/30 07:33:27;;;;;;;;;;;19.50;98.90;;;;;;4983627;28;20009;-75
2023/07/30 07:36:03;;;;;;;;;;;19.60;99.00;;;;;;4980220;28;19941;-74
2023/07/30 07:38:30;;;;;;;;;;;19.60;99.10;;;;;;4983033;28;19941;-75
2023/07/30 07:40:57;;;;;;;;;;;19.50;99.10;;;;;;4977324;28;20482;-78
2023/07/30 07:43:24;;;;;;;;;;;19.50;99.10;;;;;;4980234;28;19934;-75
2023/07/30 07:45:50;;;;;;;;;;;19.50;99.10;;;;;;4977133;28;19930;-76
2023/07/30 07:48:17;;;;;;;;;;;19.50;99.10;;;;;;4979799;28;19936;-75
2023/07/30 07:50:43;;;;;;;;;;;19.50;99.20;;;;;;4980075;28;19926;-77
2023/07/30 07:53:11;;;;;;;;;;;19.50;99.20;;;;;;4979802;28;20032;-76
2023/07/30 07:55:38;;;;;;;;;;;19.50;99.30;;;;;;4978370;28;19966;-75
2023/07/30 07:58:05;;;;;;;;;;;19.50;99.30;;;;;;4975967;28;19930;-76
2023/07/30 08:00:32;;;;;;;;;;;19.50;99.40;;;;;;4976276;28;19934;-76
2023/07/30 08:02:58;;;;;;;;;;;19.50;99.40;;;;;;4979417;28;19938;-76
2023/07/30 08:05:25;;;;;;;;;;;19.50;99.40;;;;;;4977218;28;19930;-75
2023/07/30 08:07:52;;;;;;;;;;;19.50;99.50;;;;;;4982806;28;19930;-75
2023/07/30 08:10:18;;;;;;;;;;;19.60;99.60;;;;;;4985250;28;19934;-75
2023/07/30 08:12:48;;;;;;;;;;;19.60;99.60;;;;;;4982220;28;19930;-75
2023/07/30 08:15:15;;;;;;;;;;;19.60;99.60;;;;;;4978264;28;19937;-76
2023/07/30 08:17:41;;;;;;;;;;;19.60;99.60;;;;;;4977015;28;19934;-75
2023/07/30 08:20:08;;;;;;;;;;;19.60;99.70;;;;;;4978928;28;19930;-74
2023/07/30 08:22:35;;;;;;;;;;;19.60;99.70;;;;;;4984666;28;19934;-76
2023/07/30 08:25:02;;;;;;;;;;;19.60;99.80;;;;;;4984182;28;19934;-74
2023/07/30 08:27:29;;;;;;;;;;;19.60;99.80;;;;;;4978174;28;19974;-75
2023/07/30 08:29:56;;;;;;;;;;;19.70;99.90;;;;;;4980406;28;19930;-74
2023/07/30 08:32:23;;;;;;;;;;;19.70;99.90;;;;;;4980912;28;19930;-75
2023/07/30 08:34:49;;;;;;;;;;;19.70;99.90;;;;;;4980388;28;19936;-75
2023/07/30 08:37:16;;;;;;;;;;;19.80;99.90;;;;;;4981478;28;19934;-75
2023/07/30 08:39:43;;;;;;;;;;;19.80;99.90;;;;;;4982677;28;19940;-76
2023/07/30 08:42:10;;;;;;;;;;;19.80;99.90;;;;;;4979334;28;20009;-75
2023/07/30 08:44:36;;;;;;;;;;;19.80;99.90;;;;;;4986429;28;19930;-75
2023/07/30 08:47:04;;;;;;;;;;;19.80;99.90;;;;;;4975940;28;19929;-75
2023/07/30 08:49:32;;;;;;;;;;;19.90;99.90;;;;;;4978918;28;19933;-75
2023/07/30 08:51:59;;;;;;;;;;;19.90;99.90;;;;;;4980545;28;19929;-76
2023/07/30 08:54:27;;;;;;;;;;;19.90;99.80;;;;;;4984218;28;19938;-76
2023/07/30 08:56:54;;;;;;;;;;;19.90;99.70;;;;;;4984695;28;20507;-75
2023/07/30 08:59:22;;;;;;;;;;;20.00;99.50;;;;;;4986580;28;19929;-77
2023/07/30 09:01:51;;;;;;;;;;;20.00;99.30;;;;;;4983173;28;19929;-76
2023/07/30 09:04:19;;;;;;;;;;;20.00;99.20;;;;;;4981291;28;19929;-76
2023/07/30 09:06:48;;;;;;;;;;;20.10;99.10;;;;;;4986732;28;19934;-76
2023/07/30 09:09:15;;;;;;;;;;;20.10;99.00;;;;;;4989771;28;19929;-76
2023/07/30 09:11:41;;;;;;;;;;;20.10;99.00;;;;;;4979325;28;19934;-76
2023/07/30 09:14:09;;;;;;;;;;;20.20;99.10;;;;;;4984379;28;19941;-75
2023/07/30 09:16:35;;;;;;;;;;;20.20;99.00;;;;;;4976288;28;20471;-76
2023/07/30 09:19:02;;;;;;;;;;;20.20;98.70;;;;;;4979133;28;19957;-75
2023/07/30 09:21:31;;;;;;;;;;;20.20;98.50;;;;;;4983605;28;19929;-76
2023/07/30 09:24:00;;;;;;;;;;;20.20;98.10;;;;;;4980694;28;22177;-76
2023/07/30 09:26:26;;;;;;;;;;;20.20;98.00;;;;;;4982381;28;19952;-75
2023/07/30 09:28:53;;;;;;;;;;;20.20;97.80;;;;;;4980506;28;19956;-75
2023/07/30 09:31:19;;;;;;;;;;;20.20;97.70;;;;;;4982737;28;19937;-76
2023/07/30 09:33:46;;;;;;;;;;;20.20;97.60;;;;;;4980086;28;19941;-76
2023/07/30 09:36:12;;;;;;;;;;;20.30;97.60;;;;;;4978338;28;19930;-75
2023/07/30 09:38:42;;;;;;;;;;;20.30;97.50;;;;;;4980011;28;19936;-77
2023/07/30 09:41:09;;;;;;;;;;;20.30;97.50;;;;;;4980454;28;20330;-76
2023/07/30 09:43:36;;;;;;;;;;;20.30;97.30;;;;;;4980750;28;20963;-78
2023/07/30 09:46:03;;;;;;;;;;;20.30;97.30;;;;;;4980777;28;19937;-76
2023/07/30 09:48:30;;;;;;;;;;;20.30;97.10;;;;;;4978117;28;19949;-76
2023/07/30 09:50:57;;;;;;;;;;;20.40;97.10;;;;;;4978759;28;20019;-76
2023/07/30 09:53:25;;;;;;;;;;;20.40;97.00;;;;;;4979886;28;20434;-75
2023/07/30 09:55:53;;;;;;;;;;;20.40;96.90;;;;;;4979731;28;19937;-76
2023/07/30 09:58:19;;;;;;;;;;;20.50;96.90;;;;;;4976707;28;19938;-76
2023/07/30 10:00:47;;;;;;;;;;;20.50;96.70;;;;;;4978704;28;19937;-76
2023/07/30 10:03:15;;;;;;;;;;;20.50;96.60;;;;;;4976532;28;19937;-78
2023/07/30 10:05:44;;;;;;;;;;;20.50;96.60;;;;;;4979842;28;20498;-76
2023/07/30 10:08:13;;;;;;;;;;;20.50;96.10;;;;;;4980152;28;19941;-76
2023/07/30 10:10:40;;;;;;;;;;;20.50;96.10;;;;;;4978383;28;19944;-77
2023/07/30 10:13:09;;;;;;;;;;;20.50;96.10;;;;;;4981187;28;19937;-76
2023/07/30 10:15:36;;;;;;;;;;;20.50;96.30;;;;;;4978601;28;19938;-77
2023/07/30 10:18:03;;;;;;;;;;;20.50;96.60;;;;;;4981357;28;19929;-77
2023/07/30 10:20:31;;;;;;;;;;;20.60;96.80;;;;;;4981522;28;19934;-75
2023/07/30 10:22:58;;;;;;;;;;;20.60;97.00;;;;;;4979355;28;20402;-77
2023/07/30 10:25:28;;;;;;;;;;;20.60;97.20;;;;;;4981236;28;19933;-76
2023/07/30 10:27:56;;;;;;;;;;;20.60;97.30;;;;;;4979622;28;19929;-77
2023/07/30 10:30:30;;;;;;;;;;;20.70;97.30;;;;;;4973063;28;20708;-76
2023/07/30 10:33:01;;;;;;;;;;;20.70;97.00;;;;;;4978102;28;19930;-76
2023/07/30 10:35:36;;;;;;;;;;;20.70;96.60;;;;;;4975592;28;19945;-75
2023/07/30 10:38:12;;;;;;;;;;;20.70;96.20;;;;;;4980149;28;20043;-77
2023/07/30 10:40:39;;;;;;;;;;;20.80;96.20;;;;;;4980652;28;19930;-76
2023/07/30 10:43:14;;;;;;;;;;;20.80;96.10;;;;;;4979628;28;19930;-77
2023/07/30 10:45:50;;;;;;;;;;;20.80;95.90;;;;;;4979263;28;19934;-76
2023/07/30 10:48:17;;;;;;;;;;;20.90;95.30;;;;;;4980332;28;19926;-76
2023/07/30 10:50:48;;;;;;;;;;;20.90;94.70;;;;;;4976191;28;20008;-75
2023/07/30 10:53:15;;;;;;;;;;;20.80;94.20;;;;;;4981496;28;20295;-75
2023/07/30 10:55:42;;;;;;;;;;;20.80;94.00;;;;;;4980491;28;19934;-75
2023/07/30 10:58:08;;;;;;;;;;;20.90;93.90;;;;;;4983191;28;20593;-76
2023/07/30 11:00:35;;;;;;;;;;;20.90;93.60;;;;;;4981967;28;20308;-75
2023/07/30 11:03:03;;;;;;;;;;;20.90;93.30;;;;;;4981872;28;19956;-74
2023/07/30 11:05:30;;;;;;;;;;;20.90;93.30;;;;;;4981210;28;19961;-75
2023/07/30 11:07:57;;;;;;;;;;;21.00;93.30;;;;;;4980964;28;19929;-75
2023/07/30 11:10:23;;;;;;;;;;;21.00;93.10;;;;;;4984799;28;19984;-74
2023/07/30 11:12:50;;;;;;;;;;;21.10;92.70;;;;;;4980132;28;19937;-75
2023/07/30 11:15:17;;;;;;;;;;;21.10;92.30;;;;;;4977021;28;19930;-75
2023/07/30 11:17:44;;;;;;;;;;;21.10;92.20;;;;;;4981810;28;19929;-75
2023/07/30 11:20:23;;;;;;;;;;;21.20;91.80;;;;;;4980648;28;20471;-76
2023/07/30 11:22:50;;;;;;;;;;;21.20;91.30;;;;;;4979227;28;20665;-76
2023/07/30 11:25:17;;;;;;;;;;;21.20;91.30;;;;;;4981806;28;20028;-74
2023/07/30 11:27:47;;;;;;;;;;;21.30;91.20;;;;;;4981683;28;19926;-75
2023/07/30 11:30:13;;;;;;;;;;;21.40;91.00;;;;;;4976344;28;19933;-75
2023/07/30 11:32:40;;;;;;;;;;;21.40;91.10;;;;;;4979173;28;19930;-75
2023/07/30 11:35:08;;;;;;;;;;;21.50;91.00;;;;;;4980189;28;19941;-75
2023/07/30 11:37:39;;;;;;;;;;;21.60;91.00;;;;;;4978761;28;19929;-75
2023/07/30 11:40:07;;;;;;;;;;;21.60;91.20;;;;;;4979967;28;19930;-76
2023/07/30 11:42:34;;;;;;;;;;;21.70;91.30;;;;;;4983095;28;20300;-76
2023/07/30 11:45:17;;;;;;;;;;;21.70;91.00;;;;;;4982614;28;19930;-76
2023/07/30 11:47:43;;;;;;;;;;;21.70;90.80;;;;;;4980165;28;20415;-76
2023/07/30 11:50:10;;;;;;;;;;;21.80;90.50;;;;;;4980327;28;19930;-76
2023/07/30 11:52:51;;;;;;;;;;;21.80;90.20;;;;;;4980114;28;20550;-75
2023/07/30 11:55:19;;;;;;;;;;;21.80;89.80;;;;;;4983730;28;20411;-76
2023/07/30 11:57:46;;;;;;;;;;;21.80;88.90;;;;;;4981656;28;19941;-75
2023/07/30 12:00:13;;;;;;;;;;;21.90;88.80;;;;;;4983304;28;19937;-77
2023/07/30 12:02:39;;;;;;;;;;;21.80;87.90;;;;;;4980828;28;19930;-76
2023/07/30 12:05:06;;;;;;;;;;;21.90;87.70;;;;;;4980937;28;19936;-76
2023/07/30 12:07:33;;;;;;;;;;;21.90;88.30;;;;;;4983482;28;19941;-77
2023/07/30 12:10:08;;;;;;;;;;;21.90;87.30;;;;;;4983744;28;20331;-76
2023/07/30 12:12:35;;;;;;;;;;;21.90;87.50;;;;;;4983330;28;19936;-75
2023/07/30 12:15:01;;;;;;;;;;;21.90;87.90;;;;;;4982320;28;20310;-76
2023/07/30 12:17:28;;;;;;;;;;;21.90;87.80;;;;;;4981314;28;19929;-75
2023/07/30 12:19:54;;;;;;;;;;;21.90;86.80;;;;;;4980377;28;19930;-76
2023/07/30 12:22:21;;;;;;;;;;;21.90;87.20;;;;;;4982260;28;19930;-76
2023/07/30 12:24:47;;;;;;;;;;;21.90;86.70;;;;;;4982711;28;20441;-76
2023/07/30 12:27:15;;;;;;;;;;;21.90;86.20;;;;;;4983200;28;19929;-76
2023/07/30 12:29:42;;;;;;;;;;;21.90;85.80;;;;;;4981636;28;19930;-77
2023/07/30 12:32:09;;;;;;;;;;;22.00;84.40;;;;;;4983613;28;19929;-76
2023/07/30 12:34:35;;;;;;;;;;;22.00;83.70;;;;;;4980854;28;19929;-76
2023/07/30 12:37:02;;;;;;;;;;;22.00;83.30;;;;;;4983429;28;19933;-76
2023/07/30 12:39:29;;;;;;;;;;;22.00;82.60;;;;;;4983154;28;19926;-76
2023/07/30 12:41:55;;;;;;;;;;;22.10;82.30;;;;;;4982413;28;20012;-76
2023/07/30 12:44:23;;;;;;;;;;;22.10;83.10;;;;;;4978950;28;19933;-76
2023/07/30 12:46:50;;;;;;;;;;;22.10;82.50;;;;;;4982742;28;20009;-76
2023/07/30 12:49:16;;;;;;;;;;;22.10;81.40;;;;;;4982539;28;19937;-76
2023/07/30 12:51:43;;;;;;;;;;;22.20;81.50;;;;;;4978353;28;22232;-75
2023/07/30 12:54:09;;;;;;;;;;;22.20;82.10;;;;;;4986246;28;20518;-76
2023/07/30 12:56:36;;;;;;;;;;;22.20;82.60;;;;;;4986657;28;19934;-76
2023/07/30 12:59:02;;;;;;;;;;;22.20;81.80;;;;;;4981940;28;19936;-75
2023/07/30 13:01:30;;;;;;;;;;;22.30;82.00;;;;;;4980768;28;19969;-75
2023/07/30 13:03:57;;;;;;;;;;;22.20;80.70;;;;;;4982283;28;19930;-75
2023/07/30 13:06:24;;;;;;;;;;;22.20;80.50;;;;;;4982361;28;19933;-76
2023/07/30 13:08:50;;;;;;;;;;;22.20;80.40;;;;;;4985499;28;20654;-75
2023/07/30 13:11:17;;;;;;;;;;;22.20;80.20;;;;;;4983296;28;19942;-75
2023/07/30 13:13:43;;;;;;;;;;;22.20;80.00;;;;;;4983519;28;19940;-75
2023/07/30 13:16:10;;;;;;;;;;;22.20;80.50;;;;;;4978318;28;19973;-76
2023/07/30 13:18:38;;;;;;;;;;;22.20;79.50;;;;;;4984357;28;19930;-75
2023/07/30 13:21:04;;;;;;;;;;;22.20;79.60;;;;;;4982816;28;19937;-76
2023/07/30 13:23:31;;;;;;;;;;;22.20;79.60;;;;;;4984944;28;19934;-76
2023/07/30 13:25:58;;;;;;;;;;;22.20;78.60;;;;;;4986354;28;19936;-75
2023/07/30 13:28:24;;;;;;;;;;;22.20;78.30;;;;;;4984769;28;19930;-76
2023/07/30 13:30:52;;;;;;;;;;;22.20;77.70;;;;;;4983839;28;19937;-75
2023/07/30 13:33:19;;;;;;;;;;;22.20;76.60;;;;;;4986438;28;20433;-73
2023/07/30 13:35:47;;;;;;;;;;;22.30;77.10;;;;;;4982149;28;20422;-76
2023/07/30 13:38:13;;;;;;;;;;;22.30;77.30;;;;;;4983882;28;20797;-76
2023/07/30 13:40:40;;;;;;;;;;;22.30;75.80;;;;;;4984138;28;20308;-76
2023/07/30 13:43:07;;;;;;;;;;;22.30;75.00;;;;;;4984123;28;19930;-76
2023/07/30 13:45:33;;;;;;;;;;;22.40;75.50;;;;;;4982744;28;19936;-76
2023/07/30 13:48:00;;;;;;;;;;;22.40;75.70;;;;;;4984679;28;19940;-76
2023/07/30 13:50:26;;;;;;;;;;;22.50;76.60;;;;;;4984714;28;19930;-76
2023/07/30 13:52:54;;;;;;;;;;;22.50;75.60;;;;;;4980316;28;20426;-77
2023/07/30 13:55:21;;;;;;;;;;;22.50;75.90;;;;;;4986454;28;20380;-76
2023/07/30 13:57:47;;;;;;;;;;;22.50;75.00;;;;;;4979944;28;20560;-76
2023/07/30 14:00:14;;;;;;;;;;;22.60;74.40;;;;;;4984877;28;20304;-76
2023/07/30 14:02:41;;;;;;;;;;;22.60;73.60;;;;;;4982550;28;19981;-77
2023/07/30 14:05:08;;;;;;;;;;;22.60;72.10;;;;;;4982766;28;19930;-77
2023/07/30 14:07:35;;;;;;;;;;;22.60;70.30;;;;;;4985720;28;19930;-76
2023/07/30 14:10:03;;;;;;;;;;;22.60;69.90;;;;;;4984980;28;20300;-76
2023/07/30 14:12:30;;;;;;;;;;;22.60;69.00;;;;;;4986168;28;19940;-76
2023/07/30 14:14:56;;;;;;;;;;;22.60;68.80;;;;;;4982110;28;19929;-76